sensor_id;sensor_type;location;lat;lon;timestamp;temperature;humidity
39219;DHT22;24934;52.752;6.964;2023-05-23T00:01:34;14.40;99.90
39219;DHT22;24934;52.752;6.964;2023-05-23T00:04:03;14.40;99.90
39219;DHT22;24934;52.752;6.964;2023-05-23T00:06:29;14.40;99.90
39219;DHT22;24934;52.752;6.964;2023-05-23T00:08:55;14.40;99.90
39219;DHT22;24934;52.752;6.964;2023-05-23T00:11:22;14.40;99.90
39219;DHT22;24934;52.752;6.964;2023-05-23T00:13:52;14.50;99.90
39219;DHT22;24934;52.752;6.964;2023-05-23T00:16:17;14.50;99.90
39219;DHT22;24934;52.752;6.964;2023-05-23T00:18:43;14.50;99.90
39219;DHT22;24934;52.752;6.964;2023-05-23T00:21:12;14.40;99.90
39219;DHT22;24934;52.752;6.964;2023-05-23T00:23:38;14.40;99.90
39219;DHT22;24934;52.752;6.964;2023-05-23T00:26:07;14.40;99.90
39219;DHT22;24934;52.752;6.964;2023-05-23T00:28:33;14.40;99.90
39219;DHT22;24934;52.752;6.964;2023-05-23T00:30:58;14.40;99.90
39219;DHT22;24934;52.752;6.964;2023-05-23T00:33:24;14.40;99.90
39219;DHT22;24934;52.752;6.964;2023-05-23T00:35:50;14.20;99.90
39219;DHT22;24934;52.752;6.964;2023-05-23T00:38:16;14.20;99.90
39219;DHT22;24934;52.752;6.964;2023-05-23T00:40:42;14.10;99.90
39219;DHT22;24934;52.752;6.964;2023-05-23T00:43:07;14.00;99.90
39219;DHT22;24934;52.752;6.964;2023-05-23T00:45:33;14.10;99.90
39219;DHT22;24934;52.752;6.964;2023-05-23T00:47:59;14.00;99.90
39219;DHT22;24934;52.752;6.964;2023-05-23T00:50:26;13.90;99.90
39219;DHT22;24934;52.752;6.964;2023-05-23T00:52:54;13.90;99.90
39219;DHT22;24934;52.752;6.964;2023-05-23T00:55:21;13.80;99.90
39219;DHT22;24934;52.752;6.964;2023-05-23T00:57:47;13.80;99.90
39219;DHT22;24934;52.752;6.964;2023-05-23T01:00:13;13.70;99.90
39219;DHT22;24934;52.752;6.964;2023-05-23T01:02:43;13.70;99.90
39219;DHT22;24934;52.752;6.964;2023-05-23T01:05:14;13.70;99.90
39219;DHT22;24934;52.752;6.964;2023-05-23T01:07:45;13.60;99.90
39219;DHT22;24934;52.752;6.964;2023-05-23T01:10:12;13.60;99.90
39219;DHT22;24934;52.752;6.964;2023-05-23T01:12:55;13.60;99.90
39219;DHT22;24934;52.752;6.964;2023-05-23T01:15:48;13.60;99.90
39219;DHT22;24934;52.752;6.964;2023-05-23T01:18:17;13.60;99.90
39219;DHT22;24934;52.752;6.964;2023-05-23T01:20:54;13.60;99.90
39219;DHT22;24934;52.752;6.964;2023-05-23T01:29:10;13.50;99.90
39219;DHT22;24934;52.752;6.964;2023-05-23T01:31:41;13.50;99.90
39219;DHT22;24934;52.752;6.964;2023-05-23T01:34:08;13.50;99.90
39219;DHT22;24934;52.752;6.964;2023-05-23T01:36:39;13.40;99.90
39219;DHT22;24934;52.752;6.964;2023-05-23T01:39:06;13.40;99.90
39219;DHT22;24934;52.752;6.964;2023-05-23T01:41:32;13.50;99.90
39219;DHT22;24934;52.752;6.964;2023-05-23T01:43:58;13.50;99.90
39219;DHT22;24934;52.752;6.964;2023-05-23T01:46:24;13.50;99.90
39219;DHT22;24934;52.752;6.964;2023-05-23T01:48:51;13.60;99.90
39219;DHT22;24934;52.752;6.964;2023-05-23T01:51:17;13.50;99.90
39219;DHT22;24934;52.752;6.964;2023-05-23T01:53:43;13.50;99.90
39219;DHT22;24934;52.752;6.964;2023-05-23T01:56:09;13.50;99.90
39219;DHT22;24934;52.752;6.964;2023-05-23T01:58:35;13.40;99.90
39219;DHT22;24934;52.752;6.964;2023-05-23T02:01:00;13.50;99.90
39219;DHT22;24934;52.752;6.964;2023-05-23T02:03:26;13.50;99.90
39219;DHT22;24934;52.752;6.964;2023-05-23T02:05:52;13.40;99.90
39219;DHT22;24934;52.752;6.964;2023-05-23T02:08:17;13.40;99.90
39219;DHT22;24934;52.752;6.964;2023-05-23T02:10:43;13.40;99.90
39219;DHT22;24934;52.752;6.964;2023-05-23T02:13:09;13.30;99.90
39219;DHT22;24934;52.752;6.964;2023-05-23T02:15:34;13.30;99.90
39219;DHT22;24934;52.752;6.964;2023-05-23T02:18:00;13.20;99.90
39219;DHT22;24934;52.752;6.964;2023-05-23T02:20:27;13.20;99.90
39219;DHT22;24934;52.752;6.964;2023-05-23T02:22:53;13.10;99.90
39219;DHT22;24934;52.752;6.964;2023-05-23T02:25:18;13.10;99.90
39219;DHT22;24934;52.752;6.964;2023-05-23T02:27:44;13.10;99.90
39219;DHT22;24934;52.752;6.964;2023-05-23T02:30:10;13.10;99.90
39219;DHT22;24934;52.752;6.964;2023-05-23T02:32:36;13.10;99.90
39219;DHT22;24934;52.752;6.964;2023-05-23T02:35:02;13.10;99.90
39219;DHT22;24934;52.752;6.964;2023-05-23T02:37:28;13.00;99.90
39219;DHT22;24934;52.752;6.964;2023-05-23T02:39:55;13.00;99.90
39219;DHT22;24934;52.752;6.964;2023-05-23T02:42:20;13.00;99.90
39219;DHT22;24934;52.752;6.964;2023-05-23T02:44:46;13.00;99.90
39219;DHT22;24934;52.752;6.964;2023-05-23T02:47:12;12.90;99.90
39219;DHT22;24934;52.752;6.964;2023-05-23T02:49:37;12.90;99.90
39219;DHT22;24934;52.752;6.964;2023-05-23T02:52:03;12.90;99.90
39219;DHT22;24934;52.752;6.964;2023-05-23T02:54:30;12.90;99.90
39219;DHT22;24934;52.752;6.964;2023-05-23T02:56:56;12.80;99.90
39219;DHT22;24934;52.752;6.964;2023-05-23T02:59:22;12.80;99.90
39219;DHT22;24934;52.752;6.964;2023-05-23T03:01:48;12.80;99.90
39219;DHT22;24934;52.752;6.964;2023-05-23T03:04:14;12.70;99.90
39219;DHT22;24934;52.752;6.964;2023-05-23T03:06:40;12.70;99.90
39219;DHT22;24934;52.752;6.964;2023-05-23T03:09:09;12.70;99.90
39219;DHT22;24934;52.752;6.964;2023-05-23T03:11:35;12.70;99.90
39219;DHT22;24934;52.752;6.964;2023-05-23T03:14:02;12.70;99.90
39219;DHT22;24934;52.752;6.964;2023-05-23T03:16:31;12.70;99.90
39219;DHT22;24934;52.752;6.964;2023-05-23T03:18:56;12.60;99.90
39219;DHT22;24934;52.752;6.964;2023-05-23T03:21:22;12.60;99.90
39219;DHT22;24934;52.752;6.964;2023-05-23T03:23:47;12.60;99.90
39219;DHT22;24934;52.752;6.964;2023-05-23T03:26:13;12.70;99.90
39219;DHT22;24934;52.752;6.964;2023-05-23T03:28:39;12.60;99.90
39219;DHT22;24934;52.752;6.964;2023-05-23T03:31:05;12.60;99.90
39219;DHT22;24934;52.752;6.964;2023-05-23T03:33:30;12.60;99.90
39219;DHT22;24934;52.752;6.964;2023-05-23T03:35:56;12.50;99.90
39219;DHT22;24934;52.752;6.964;2023-05-23T03:38:25;12.50;99.90
39219;DHT22;24934;52.752;6.964;2023-05-23T03:40:57;12.50;99.90
39219;DHT22;24934;52.752;6.964;2023-05-23T03:43:23;12.40;99.90
39219;DHT22;24934;52.752;6.964;2023-05-23T03:45:49;12.40;99.90
39219;DHT22;24934;52.752;6.964;2023-05-23T03:48:17;12.40;99.90
39219;DHT22;24934;52.752;6.964;2023-05-23T03:50:42;12.30;99.90
39219;DHT22;24934;52.752;6.964;2023-05-23T03:53:08;12.30;99.90
39219;DHT22;24934;52.752;6.964;2023-05-23T03:55:34;12.30;99.90
39219;DHT22;24934;52.752;6.964;2023-05-23T03:57:59;12.20;99.90
39219;DHT22;24934;52.752;6.964;2023-05-23T04:00:25;12.10;99.90
39219;DHT22;24934;52.752;6.964;2023-05-23T04:02:51;12.10;99.90
39219;DHT22;24934;52.752;6.964;2023-05-23T04:05:17;12.00;99.90
39219;DHT22;24934;52.752;6.964;2023-05-23T04:07:44;12.00;99.90
39219;DHT22;24934;52.752;6.964;2023-05-23T04:10:10;12.00;99.90
39219;DHT22;24934;52.752;6.964;2023-05-23T04:12:36;11.90;99.90
39219;DHT22;24934;52.752;6.964;2023-05-23T04:15:03;11.90;99.90
39219;DHT22;24934;52.752;6.964;2023-05-23T04:17:29;11.90;99.90
39219;DHT22;24934;52.752;6.964;2023-05-23T04:19:56;11.80;99.90
39219;DHT22;24934;52.752;6.964;2023-05-23T04:22:21;11.80;99.90
39219;DHT22;24934;52.752;6.964;2023-05-23T04:24:47;11.80;99.90
39219;DHT22;24934;52.752;6.964;2023-05-23T04:27:16;11.70;99.90
39219;DHT22;24934;52.752;6.964;2023-05-23T04:29:41;11.70;99.90
39219;DHT22;24934;52.752;6.964;2023-05-23T04:32:11;11.70;99.90
39219;DHT22;24934;52.752;6.964;2023-05-23T04:34:37;11.60;99.90
39219;DHT22;24934;52.752;6.964;2023-05-23T04:37:02;11.60;99.90
39219;DHT22;24934;52.752;6.964;2023-05-23T04:39:31;11.60;99.90
39219;DHT22;24934;52.752;6.964;2023-05-23T04:41:57;11.60;99.90
39219;DHT22;24934;52.752;6.964;2023-05-23T04:44:24;11.60;99.90
39219;DHT22;24934;52.752;6.964;2023-05-23T04:46:57;11.60;99.90
39219;DHT22;24934;52.752;6.964;2023-05-23T04:49:22;11.50;99.90
39219;DHT22;24934;52.752;6.964;2023-05-23T04:51:48;11.60;99.90
39219;DHT22;24934;52.752;6.964;2023-05-23T04:54:14;11.50;99.90
39219;DHT22;24934;52.752;6.964;2023-05-23T04:56:42;11.50;99.90
39219;DHT22;24934;52.752;6.964;2023-05-23T04:59:07;11.50;99.90
39219;DHT22;24934;52.752;6.964;2023-05-23T05:01:35;11.60;99.90
39219;DHT22;24934;52.752;6.964;2023-05-23T05:04:05;11.60;99.90
39219;DHT22;24934;52.752;6.964;2023-05-23T05:06:31;11.50;99.90
39219;DHT22;24934;52.752;6.964;2023-05-23T05:09:00;11.50;99.90
39219;DHT22;24934;52.752;6.964;2023-05-23T05:11:25;11.50;99.90
39219;DHT22;24934;52.752;6.964;2023-05-23T05:13:51;11.50;99.90
39219;DHT22;24934;52.752;6.964;2023-05-23T05:16:17;11.50;99.90
39219;DHT22;24934;52.752;6.964;2023-05-23T05:18:42;11.50;99.90
39219;DHT22;24934;52.752;6.964;2023-05-23T05:21:08;11.50;99.90
39219;DHT22;24934;52.752;6.964;2023-05-23T05:23:34;11.50;99.90
39219;DHT22;24934;52.752;6.964;2023-05-23T05:26:00;11.50;99.90
39219;DHT22;24934;52.752;6.964;2023-05-23T05:28:26;11.50;99.90
39219;DHT22;24934;52.752;6.964;2023-05-23T05:30:51;11.40;99.90
39219;DHT22;24934;52.752;6.964;2023-05-23T05:33:21;11.40;99.90
39219;DHT22;24934;52.752;6.964;2023-05-23T05:35:49;11.30;99.90
39219;DHT22;24934;52.752;6.964;2023-05-23T05:38:21;11.30;99.90
39219;DHT22;24934;52.752;6.964;2023-05-23T05:40:46;11.30;99.90
39219;DHT22;24934;52.752;6.964;2023-05-23T05:43:12;11.40;99.90
39219;DHT22;24934;52.752;6.964;2023-05-23T05:45:38;11.40;99.90
39219;DHT22;24934;52.752;6.964;2023-05-23T05:48:04;11.40;99.90
39219;DHT22;24934;52.752;6.964;2023-05-23T05:50:30;11.40;99.90
39219;DHT22;24934;52.752;6.964;2023-05-23T05:52:56;11.40;99.90
39219;DHT22;24934;52.752;6.964;2023-05-23T05:55:25;11.40;99.90
39219;DHT22;24934;52.752;6.964;2023-05-23T05:57:51;11.30;99.90
39219;DHT22;24934;52.752;6.964;2023-05-23T06:00:17;11.30;99.90
39219;DHT22;24934;52.752;6.964;2023-05-23T06:02:44;11.30;99.90
39219;DHT22;24934;52.752;6.964;2023-05-23T06:05:13;11.30;99.90
39219;DHT22;24934;52.752;6.964;2023-05-23T06:07:46;11.30;99.90
39219;DHT22;24934;52.752;6.964;2023-05-23T06:10:12;11.30;99.90
39219;DHT22;24934;52.752;6.964;2023-05-23T06:12:38;11.30;99.90
39219;DHT22;24934;52.752;6.964;2023-05-23T06:15:08;11.30;99.90
39219;DHT22;24934;52.752;6.964;2023-05-23T06:17:34;11.30;99.90
39219;DHT22;24934;52.752;6.964;2023-05-23T06:20:00;11.40;99.90
39219;DHT22;24934;52.752;6.964;2023-05-23T06:22:27;11.30;99.90
39219;DHT22;24934;52.752;6.964;2023-05-23T06:24:53;11.30;99.90
39219;DHT22;24934;52.752;6.964;2023-05-23T06:27:18;11.20;99.90
39219;DHT22;24934;52.752;6.964;2023-05-23T06:29:44;11.20;99.90
39219;DHT22;24934;52.752;6.964;2023-05-23T06:32:10;11.10;99.90
39219;DHT22;24934;52.752;6.964;2023-05-23T06:34:35;11.10;99.90
39219;DHT22;24934;52.752;6.964;2023-05-23T06:37:01;11.10;99.90
39219;DHT22;24934;52.752;6.964;2023-05-23T06:39:27;11.00;99.90
39219;DHT22;24934;52.752;6.964;2023-05-23T06:41:53;10.90;99.90
39219;DHT22;24934;52.752;6.964;2023-05-23T06:44:18;10.90;99.90
39219;DHT22;24934;52.752;6.964;2023-05-23T06:46:44;10.80;99.90
39219;DHT22;24934;52.752;6.964;2023-05-23T06:49:10;10.80;99.90
39219;DHT22;24934;52.752;6.964;2023-05-23T06:51:36;10.70;99.90
39219;DHT22;24934;52.752;6.964;2023-05-23T06:54:02;10.80;99.90
39219;DHT22;24934;52.752;6.964;2023-05-23T06:56:27;10.80;99.90
39219;DHT22;24934;52.752;6.964;2023-05-23T06:58:53;10.80;99.90
39219;DHT22;24934;52.752;6.964;2023-05-23T07:01:19;10.90;99.90
39219;DHT22;24934;52.752;6.964;2023-05-23T07:03:45;10.80;99.90
39219;DHT22;24934;52.752;6.964;2023-05-23T07:06:11;10.90;99.90
39219;DHT22;24934;52.752;6.964;2023-05-23T07:08:38;10.90;99.90
39219;DHT22;24934;52.752;6.964;2023-05-23T07:11:05;10.90;99.90
39219;DHT22;24934;52.752;6.964;2023-05-23T07:13:33;10.90;99.90
39219;DHT22;24934;52.752;6.964;2023-05-23T07:15:59;11.00;99.90
39219;DHT22;24934;52.752;6.964;2023-05-23T07:18:27;11.00;99.90
39219;DHT22;24934;52.752;6.964;2023-05-23T07:20:53;11.00;99.90
39219;DHT22;24934;52.752;6.964;2023-05-23T07:23:21;11.00;99.90
39219;DHT22;24934;52.752;6.964;2023-05-23T07:25:48;11.00;99.90
39219;DHT22;24934;52.752;6.964;2023-05-23T07:28:13;11.00;99.90
39219;DHT22;24934;52.752;6.964;2023-05-23T07:30:42;11.20;99.90
39219;DHT22;24934;52.752;6.964;2023-05-23T07:33:07;11.30;99.90
39219;DHT22;24934;52.752;6.964;2023-05-23T07:35:33;11.40;99.90
39219;DHT22;24934;52.752;6.964;2023-05-23T07:38:01;11.50;99.90
39219;DHT22;24934;52.752;6.964;2023-05-23T07:40:26;11.60;99.90
39219;DHT22;24934;52.752;6.964;2023-05-23T07:42:52;11.70;99.90
39219;DHT22;24934;52.752;6.964;2023-05-23T07:45:18;11.70;99.90
39219;DHT22;24934;52.752;6.964;2023-05-23T07:47:44;11.80;99.90
39219;DHT22;24934;52.752;6.964;2023-05-23T07:50:10;11.80;99.90
39219;DHT22;24934;52.752;6.964;2023-05-23T07:52:35;11.90;99.90
39219;DHT22;24934;52.752;6.964;2023-05-23T07:55:01;12.00;99.90
39219;DHT22;24934;52.752;6.964;2023-05-23T07:57:29;11.90;99.90
39219;DHT22;24934;52.752;6.964;2023-05-23T07:59:55;11.90;99.90
39219;DHT22;24934;52.752;6.964;2023-05-23T08:02:21;11.90;99.90
39219;DHT22;24934;52.752;6.964;2023-05-23T08:04:47;12.00;99.90
39219;DHT22;24934;52.752;6.964;2023-05-23T08:07:13;12.00;99.90
39219;DHT22;24934;52.752;6.964;2023-05-23T08:09:39;12.00;99.90
39219;DHT22;24934;52.752;6.964;2023-05-23T08:12:08;12.10;99.90
39219;DHT22;24934;52.752;6.964;2023-05-23T08:14:34;12.30;99.90
39219;DHT22;24934;52.752;6.964;2023-05-23T08:17:01;12.30;99.90
39219;DHT22;24934;52.752;6.964;2023-05-23T08:19:27;12.20;99.90
39219;DHT22;24934;52.752;6.964;2023-05-23T08:21:52;12.10;99.90
39219;DHT22;24934;52.752;6.964;2023-05-23T08:24:19;12.10;99.90
39219;DHT22;24934;52.752;6.964;2023-05-23T08:26:45;12.00;99.90
39219;DHT22;24934;52.752;6.964;2023-05-23T08:29:12;11.90;99.90
39219;DHT22;24934;52.752;6.964;2023-05-23T08:31:38;11.90;99.90
39219;DHT22;24934;52.752;6.964;2023-05-23T08:34:04;11.80;99.90
39219;DHT22;24934;52.752;6.964;2023-05-23T08:36:30;11.90;99.90
39219;DHT22;24934;52.752;6.964;2023-05-23T08:39:03;12.00;99.90
39219;DHT22;24934;52.752;6.964;2023-05-23T08:41:29;12.20;99.90
39219;DHT22;24934;52.752;6.964;2023-05-23T08:43:59;12.30;99.90
39219;DHT22;24934;52.752;6.964;2023-05-23T08:46:28;12.50;99.90
39219;DHT22;24934;52.752;6.964;2023-05-23T08:48:54;12.50;99.90
39219;DHT22;24934;52.752;6.964;2023-05-23T08:51:25;12.60;99.90
39219;DHT22;24934;52.752;6.964;2023-05-23T08:53:51;12.70;99.90
39219;DHT22;24934;52.752;6.964;2023-05-23T08:56:18;12.90;99.90
39219;DHT22;24934;52.752;6.964;2023-05-23T08:58:45;12.90;99.90
39219;DHT22;24934;52.752;6.964;2023-05-23T09:01:12;12.90;99.90
39219;DHT22;24934;52.752;6.964;2023-05-23T09:03:39;12.90;99.90
39219;DHT22;24934;52.752;6.964;2023-05-23T09:06:08;12.80;99.90
39219;DHT22;24934;52.752;6.964;2023-05-23T09:08:35;12.90;99.90
39219;DHT22;24934;52.752;6.964;2023-05-23T09:11:02;13.20;99.90
39219;DHT22;24934;52.752;6.964;2023-05-23T09:13:29;14.00;99.90
39219;DHT22;24934;52.752;6.964;2023-05-23T09:16:02;14.60;99.90
39219;DHT22;24934;52.752;6.964;2023-05-23T09:18:42;15.10;99.90
39219;DHT22;24934;52.752;6.964;2023-05-23T09:21:12;15.40;99.90
39219;DHT22;24934;52.752;6.964;2023-05-23T09:23:39;15.80;99.90
39219;DHT22;24934;52.752;6.964;2023-05-23T09:26:07;15.60;99.90
39219;DHT22;24934;52.752;6.964;2023-05-23T09:28:34;15.60;99.90
39219;DHT22;24934;52.752;6.964;2023-05-23T09:31:01;15.80;99.90
39219;DHT22;24934;52.752;6.964;2023-05-23T09:33:41;16.00;99.90
39219;DHT22;24934;52.752;6.964;2023-05-23T09:36:07;16.00;99.90
39219;DHT22;24934;52.752;6.964;2023-05-23T09:38:40;16.10;99.90
39219;DHT22;24934;52.752;6.964;2023-05-23T09:41:07;15.90;99.90
39219;DHT22;24934;52.752;6.964;2023-05-23T09:43:33;16.00;99.90
39219;DHT22;24934;52.752;6.964;2023-05-23T09:46:10;16.60;99.90
39219;DHT22;24934;52.752;6.964;2023-05-23T09:48:36;16.90;99.90
39219;DHT22;24934;52.752;6.964;2023-05-23T09:51:14;17.00;99.90
39219;DHT22;24934;52.752;6.964;2023-05-23T09:53:42;17.50;99.90
39219;DHT22;24934;52.752;6.964;2023-05-23T09:56:09;18.00;99.90
39219;DHT22;24934;52.752;6.964;2023-05-23T09:58:51;18.30;99.90
39219;DHT22;24934;52.752;6.964;2023-05-23T10:01:18;18.00;99.90
39219;DHT22;24934;52.752;6.964;2023-05-23T10:03:52;17.40;99.90
39219;DHT22;24934;52.752;6.964;2023-05-23T10:08:59;16.50;99.90
39219;DHT22;24934;52.752;6.964;2023-05-23T10:12:16;16.30;99.90
39219;DHT22;24934;52.752;6.964;2023-05-23T10:14:54;16.00;99.90
39219;DHT22;24934;52.752;6.964;2023-05-23T10:17:35;15.70;99.90
39219;DHT22;24934;52.752;6.964;2023-05-23T10:20:09;15.70;99.90
39219;DHT22;24934;52.752;6.964;2023-05-23T10:22:37;15.80;99.90
39219;DHT22;24934;52.752;6.964;2023-05-23T10:25:04;15.80;99.90
39219;DHT22;24934;52.752;6.964;2023-05-23T10:27:31;15.60;99.90
39219;DHT22;24934;52.752;6.964;2023-05-23T10:29:58;15.50;99.90
39219;DHT22;24934;52.752;6.964;2023-05-23T10:32:26;15.50;99.90
39219;DHT22;24934;52.752;6.964;2023-05-23T10:40:45;16.00;99.90
39219;DHT22;24934;52.752;6.964;2023-05-23T10:43:28;16.10;99.90
39219;DHT22;24934;52.752;6.964;2023-05-23T10:45:55;16.10;99.90
39219;DHT22;24934;52.752;6.964;2023-05-23T10:48:31;17.30;99.90
39219;DHT22;24934;52.752;6.964;2023-05-23T10:51:08;17.70;99.90
39219;DHT22;24934;52.752;6.964;2023-05-23T10:53:37;17.50;99.90
39219;DHT22;24934;52.752;6.964;2023-05-23T10:56:07;17.00;99.90
39219;DHT22;24934;52.752;6.964;2023-05-23T10:58:37;17.10;99.90
39219;DHT22;24934;52.752;6.964;2023-05-23T11:01:12;16.80;99.90
39219;DHT22;24934;52.752;6.964;2023-05-23T11:06:37;16.30;99.90
39219;DHT22;24934;52.752;6.964;2023-05-23T11:14:18;17.40;99.90
39219;DHT22;24934;52.752;6.964;2023-05-23T11:16:46;18.00;99.90
39219;DHT22;24934;52.752;6.964;2023-05-23T11:22:01;18.70;99.90
39219;DHT22;24934;52.752;6.964;2023-05-23T11:24:50;18.20;99.90
39219;DHT22;24934;52.752;6.964;2023-05-23T11:30:16;17.60;99.90
39219;DHT22;24934;52.752;6.964;2023-05-23T11:32:52;17.60;99.90
39219;DHT22;24934;52.752;6.964;2023-05-23T11:35:22;17.00;99.90
39219;DHT22;24934;52.752;6.964;2023-05-23T11:37:48;16.80;99.90
39219;DHT22;24934;52.752;6.964;2023-05-23T11:40:28;16.60;99.90
39219;DHT22;24934;52.752;6.964;2023-05-23T11:42:58;16.90;99.90
39219;DHT22;24934;52.752;6.964;2023-05-23T11:45:24;17.40;99.90
39219;DHT22;24934;52.752;6.964;2023-05-23T11:47:50;17.80;99.90
39219;DHT22;24934;52.752;6.964;2023-05-23T11:50:16;18.20;99.90
39219;DHT22;24934;52.752;6.964;2023-05-23T11:52:42;18.10;99.90
39219;DHT22;24934;52.752;6.964;2023-05-23T11:55:08;17.60;99.90
39219;DHT22;24934;52.752;6.964;2023-05-23T11:57:38;17.20;99.90
39219;DHT22;24934;52.752;6.964;2023-05-23T12:00:07;16.70;99.90
39219;DHT22;24934;52.752;6.964;2023-05-23T12:02:40;16.50;99.90
39219;DHT22;24934;52.752;6.964;2023-05-23T12:05:10;16.70;99.90
39219;DHT22;24934;52.752;6.964;2023-05-23T12:07:45;16.70;99.90
39219;DHT22;24934;52.752;6.964;2023-05-23T12:10:15;16.70;99.90
39219;DHT22;24934;52.752;6.964;2023-05-23T12:12:41;17.40;99.90
39219;DHT22;24934;52.752;6.964;2023-05-23T12:15:12;17.70;99.90
39219;DHT22;24934;52.752;6.964;2023-05-23T12:17:38;17.50;99.90
39219;DHT22;24934;52.752;6.964;2023-05-23T12:20:05;17.40;99.90
39219;DHT22;24934;52.752;6.964;2023-05-23T12:22:31;17.40;99.90
39219;DHT22;24934;52.752;6.964;2023-05-23T12:24:56;17.40;99.90
39219;DHT22;24934;52.752;6.964;2023-05-23T12:27:33;17.20;99.90
39219;DHT22;24934;52.752;6.964;2023-05-23T12:30:12;17.10;99.90
39219;DHT22;24934;52.752;6.964;2023-05-23T12:32:39;17.20;99.90
39219;DHT22;24934;52.752;6.964;2023-05-23T12:35:07;17.50;99.90
39219;DHT22;24934;52.752;6.964;2023-05-23T12:37:33;17.50;99.90
39219;DHT22;24934;52.752;6.964;2023-05-23T12:40:17;17.00;99.90
39219;DHT22;24934;52.752;6.964;2023-05-23T12:42:49;16.90;99.90
39219;DHT22;24934;52.752;6.964;2023-05-23T12:45:17;17.30;99.90
39219;DHT22;24934;52.752;6.964;2023-05-23T12:47:42;17.50;99.90
39219;DHT22;24934;52.752;6.964;2023-05-23T12:50:08;17.50;99.90
39219;DHT22;24934;52.752;6.964;2023-05-23T12:52:35;17.40;99.90
39219;DHT22;24934;52.752;6.964;2023-05-23T12:55:03;16.80;99.90
39219;DHT22;24934;52.752;6.964;2023-05-23T12:57:30;16.70;99.90
39219;DHT22;24934;52.752;6.964;2023-05-23T12:59:56;16.50;99.90
39219;DHT22;24934;52.752;6.964;2023-05-23T13:02:22;16.70;99.90
39219;DHT22;24934;52.752;6.964;2023-05-23T13:04:48;17.30;99.90
39219;DHT22;24934;52.752;6.964;2023-05-23T13:07:13;17.40;99.90
39219;DHT22;24934;52.752;6.964;2023-05-23T13:09:39;17.50;99.90
39219;DHT22;24934;52.752;6.964;2023-05-23T13:12:05;17.10;99.90
39219;DHT22;24934;52.752;6.964;2023-05-23T13:14:31;17.00;99.90
39219;DHT22;24934;52.752;6.964;2023-05-23T13:16:57;16.90;99.90
39219;DHT22;24934;52.752;6.964;2023-05-23T13:19:23;17.20;99.90
39219;DHT22;24934;52.752;6.964;2023-05-23T13:21:49;17.00;99.90
39219;DHT22;24934;52.752;6.964;2023-05-23T13:24:14;16.60;99.90
39219;DHT22;24934;52.752;6.964;2023-05-23T13:26:40;16.20;99.90
39219;DHT22;24934;52.752;6.964;2023-05-23T13:29:05;16.40;99.90
39219;DHT22;24934;52.752;6.964;2023-05-23T13:31:31;16.90;99.90
39219;DHT22;24934;52.752;6.964;2023-05-23T13:33:57;17.50;99.90
39219;DHT22;24934;52.752;6.964;2023-05-23T13:36:22;17.50;99.90
39219;DHT22;24934;52.752;6.964;2023-05-23T13:38:49;17.30;99.90
39219;DHT22;24934;52.752;6.964;2023-05-23T13:41:15;17.10;99.90
39219;DHT22;24934;52.752;6.964;2023-05-23T13:43:41;16.80;99.90
39219;DHT22;24934;52.752;6.964;2023-05-23T13:46:07;16.80;99.90
39219;DHT22;24934;52.752;6.964;2023-05-23T13:48:32;16.40;99.90
39219;DHT22;24934;52.752;6.964;2023-05-23T13:51:00;16.10;99.90
39219;DHT22;24934;52.752;6.964;2023-05-23T13:53:26;16.40;99.90
39219;DHT22;24934;52.752;6.964;2023-05-23T13:55:51;16.80;99.90
39219;DHT22;24934;52.752;6.964;2023-05-23T13:58:17;17.10;99.90
39219;DHT22;24934;52.752;6.964;2023-05-23T14:00:46;17.30;99.90
39219;DHT22;24934;52.752;6.964;2023-05-23T14:03:11;17.20;99.90
39219;DHT22;24934;52.752;6.964;2023-05-23T14:05:37;17.00;99.90
39219;DHT22;24934;52.752;6.964;2023-05-23T14:08:03;16.70;99.90
39219;DHT22;24934;52.752;6.964;2023-05-23T14:10:29;16.40;99.90
39219;DHT22;24934;52.752;6.964;2023-05-23T14:12:55;16.00;99.90
39219;DHT22;24934;52.752;6.964;2023-05-23T14:15:20;15.80;99.90
39219;DHT22;24934;52.752;6.964;2023-05-23T14:17:46;16.10;99.90
39219;DHT22;24934;52.752;6.964;2023-05-23T14:20:12;16.50;99.90
39219;DHT22;24934;52.752;6.964;2023-05-23T14:22:38;17.30;99.90
39219;DHT22;24934;52.752;6.964;2023-05-23T14:25:07;17.70;99.90
39219;DHT22;24934;52.752;6.964;2023-05-23T14:27:32;18.20;99.90
39219;DHT22;24934;52.752;6.964;2023-05-23T14:30:01;18.50;99.90
39219;DHT22;24934;52.752;6.964;2023-05-23T14:32:27;18.50;99.90
39219;DHT22;24934;52.752;6.964;2023-05-23T14:34:52;18.00;99.90
39219;DHT22;24934;52.752;6.964;2023-05-23T14:37:18;17.40;99.90
39219;DHT22;24934;52.752;6.964;2023-05-23T14:39:47;17.40;99.90
39219;DHT22;24934;52.752;6.964;2023-05-23T14:42:12;16.90;99.90
39219;DHT22;24934;52.752;6.964;2023-05-23T14:44:38;17.00;99.90
39219;DHT22;24934;52.752;6.964;2023-05-23T14:47:04;17.00;99.90
39219;DHT22;24934;52.752;6.964;2023-05-23T14:49:32;16.70;99.90
39219;DHT22;24934;52.752;6.964;2023-05-23T14:51:58;16.70;99.90
39219;DHT22;24934;52.752;6.964;2023-05-23T14:54:24;16.50;99.90
39219;DHT22;24934;52.752;6.964;2023-05-23T14:56:50;16.30;99.90
39219;DHT22;24934;52.752;6.964;2023-05-23T14:59:16;16.80;99.90
39219;DHT22;24934;52.752;6.964;2023-05-23T15:01:41;16.80;99.90
39219;DHT22;24934;52.752;6.964;2023-05-23T15:04:07;16.90;99.90
39219;DHT22;24934;52.752;6.964;2023-05-23T15:06:33;17.30;99.90
39219;DHT22;24934;52.752;6.964;2023-05-23T15:08:59;17.40;99.90
39219;DHT22;24934;52.752;6.964;2023-05-23T15:11:26;17.20;99.90
39219;DHT22;24934;52.752;6.964;2023-05-23T15:13:52;16.40;99.90
39219;DHT22;24934;52.752;6.964;2023-05-23T15:16:18;15.80;99.90
39219;DHT22;24934;52.752;6.964;2023-05-23T15:18:43;15.50;99.90
39219;DHT22;24934;52.752;6.964;2023-05-23T15:21:09;15.20;99.90
39219;DHT22;24934;52.752;6.964;2023-05-23T15:23:36;14.90;99.90
39219;DHT22;24934;52.752;6.964;2023-05-23T15:26:02;14.90;99.90
39219;DHT22;24934;52.752;6.964;2023-05-23T15:28:27;15.00;99.90
39219;DHT22;24934;52.752;6.964;2023-05-23T15:30:57;14.70;99.90
39219;DHT22;24934;52.752;6.964;2023-05-23T15:33:23;14.50;99.90
39219;DHT22;24934;52.752;6.964;2023-05-23T15:35:49;14.50;99.90
39219;DHT22;24934;52.752;6.964;2023-05-23T15:38:17;14.60;99.90
39219;DHT22;24934;52.752;6.964;2023-05-23T15:40:45;14.90;99.90
39219;DHT22;24934;52.752;6.964;2023-05-23T15:43:13;15.00;99.90
39219;DHT22;24934;52.752;6.964;2023-05-23T15:45:38;14.70;99.90
39219;DHT22;24934;52.752;6.964;2023-05-23T15:48:04;14.70;99.90
39219;DHT22;24934;52.752;6.964;2023-05-23T15:50:32;14.80;99.90
39219;DHT22;24934;52.752;6.964;2023-05-23T15:52:57;14.90;99.90
39219;DHT22;24934;52.752;6.964;2023-05-23T15:55:23;15.00;99.90
39219;DHT22;24934;52.752;6.964;2023-05-23T15:57:49;15.10;99.90
39219;DHT22;24934;52.752;6.964;2023-05-23T16:00:15;15.10;99.90